Hankins, New York
Current Conditions -  °F | °C
As of 5:55 PM on Tuesday 21 Oct 2014 (Local Time) from KMSV Reporting Station
Broken Clouds Broken Clouds  
Wind Chill: 10°   Ceiling: 3900
Heat Index: 10°   Visibility: 10mi
Dew Point:   Wind: 5mph
Humidity: 94%   Direction: 80°E
Pressure: 29.89"   Gusts: NA
Location:  41.81°N, 75.09°W
Report Text: KMSV 212155Z AUTO 08004KT 10SM FEW027 SCT032 BKN039 10/09 A2989 RMK AO1
Loading
Personal Weather Stations






























Interactive Weather Map
Tropical Storm Tracking
New forecast layout! Learn more

10-Day Weather Forecast

Advertisements
Track Severe Weather on mobile